Time;durP1;ratioP1;P1;durP2;ratioP2;P2;SDS_P1;SDS_P2;PMS_P1;PMS_P2;Temp;Humidity;BMP_temperature;BMP_pressure;BME280_temperature;BME280_humidity;BME280_pressure;Samples;Min_cycle;Max_cycle;Signal;HPM_P1;HPM_P2
2022/03/06 00:00:13;;;;;;;1999.90;999.90;;;3.50;99.90;;;;;;5071612;28;21102;-76
2022/03/06 00:02:39;;;;;;;1999.90;999.90;;;3.40;99.90;;;;;;5070536;28;20485;-76
2022/03/06 00:05:05;;;;;;;1999.90;999.90;;;3.40;99.90;;;;;;5070837;28;20958;-76
2022/03/06 00:07:31;;;;;;;1999.90;999.90;;;3.40;99.90;;;;;;5071249;28;20762;-77
2022/03/06 00:09:57;;;;;;;1999.90;999.90;;;3.40;99.90;;;;;;5071251;28;20424;-76
2022/03/06 00:12:23;;;;;;;1999.90;999.90;;;3.40;99.90;;;;;;5071256;28;20417;-76
2022/03/06 00:14:49;;;;;;;1999.90;999.90;;;3.40;99.90;;;;;;5070209;28;20591;-76
2022/03/06 00:17:14;;;;;;;1999.90;999.90;;;3.30;99.90;;;;;;5071092;28;20186;-76
2022/03/06 00:19:40;;;;;;;1999.90;999.90;;;3.40;99.90;;;;;;5071592;28;20175;-76
2022/03/06 00:22:06;;;;;;;1999.90;999.90;;;3.50;99.90;;;;;;5070471;28;20405;-76
2022/03/06 00:24:31;;;;;;;1999.90;999.90;;;3.50;99.90;;;;;;5070351;28;20217;-76
2022/03/06 00:26:57;;;;;;;1999.90;999.90;;;3.50;99.90;;;;;;5071228;28;20793;-76
2022/03/06 00:29:23;;;;;;;1999.90;999.90;;;3.50;99.90;;;;;;5070841;28;20232;-76
2022/03/06 00:31:48;;;;;;;1999.90;999.90;;;3.50;99.90;;;;;;5070929;28;20260;-76
2022/03/06 00:34:14;;;;;;;1999.90;999.90;;;3.50;99.90;;;;;;5069611;28;20234;-76
2022/03/06 00:36:39;;;;;;;1999.90;999.90;;;3.40;99.90;;;;;;5070784;28;20653;-76
2022/03/06 00:39:05;;;;;;;1999.90;999.90;;;3.30;99.90;;;;;;5071332;28;20691;-76
2022/03/06 00:41:31;;;;;;;1999.90;999.90;;;3.20;99.90;;;;;;5086763;22;20246;-78
2022/03/06 00:43:57;;;;;;;1999.90;999.90;;;3.20;99.90;;;;;;5073724;28;20238;-77
2022/03/06 00:46:22;;;;;;;1999.90;999.90;;;3.20;99.90;;;;;;5073232;28;20888;-77
2022/03/06 00:48:48;;;;;;;1999.90;999.90;;;3.20;99.90;;;;;;5073834;28;20177;-76
2022/03/06 00:51:14;;;;;;;1999.90;999.90;;;3.10;99.90;;;;;;5070096;28;20191;-74
2022/03/06 00:53:41;;;;;;;1999.90;999.90;;;3.10;99.90;;;;;;5053686;28;20410;-76
2022/03/06 00:56:07;;;;;;;1999.90;999.90;;;3.00;99.90;;;;;;5052949;28;20418;-78
2022/03/06 00:58:33;;;;;;;1999.90;999.90;;;3.00;99.90;;;;;;5052514;28;21046;-76
2022/03/06 01:00:59;;;;;;;1999.90;999.90;;;3.00;99.90;;;;;;5068288;28;20714;-76
2022/03/06 01:03:25;;;;;;;1999.90;999.90;;;3.00;99.90;;;;;;5048412;28;20179;-76
2022/03/06 01:05:51;;;;;;;1999.90;999.90;;;3.00;99.90;;;;;;5049919;28;20182;-75
2022/03/06 01:08:16;;;;;;;1999.90;999.90;;;2.90;99.90;;;;;;5050211;28;20422;-77
2022/03/06 01:10:45;;;;;;;1999.90;999.90;;;2.90;99.90;;;;;;5050183;28;20233;-75
2022/03/06 01:13:12;;;;;;;1999.90;999.90;;;2.90;99.90;;;;;;5050270;28;20270;-76
2022/03/06 01:15:38;;;;;;;1999.90;999.90;;;2.80;99.90;;;;;;5049262;28;21069;-75
2022/03/06 01:18:08;;;;;;;1999.90;999.90;;;2.80;99.90;;;;;;5050058;28;20282;-73
2022/03/06 01:20:38;;;;;;;1999.90;999.90;;;2.80;99.90;;;;;;5050475;28;20919;-74
2022/03/06 01:23:04;;;;;;;1999.90;999.90;;;2.80;99.90;;;;;;5050010;28;20430;-75
2022/03/06 01:25:31;;;;;;;1999.90;999.90;;;2.80;99.90;;;;;;5048894;28;20180;-73
2022/03/06 01:27:56;;;;;;;1999.90;999.90;;;2.80;99.90;;;;;;5049816;28;20555;-74
2022/03/06 01:30:22;;;;;;;1999.90;999.90;;;2.80;99.90;;;;;;5050226;28;20410;-73
2022/03/06 01:32:49;;;;;;;1999.90;999.90;;;2.80;99.90;;;;;;5049616;28;20223;-73
2022/03/06 01:35:15;;;;;;;1999.90;999.90;;;2.80;99.90;;;;;;5048654;28;20571;-74
2022/03/06 01:37:41;;;;;;;1999.90;999.90;;;2.80;99.90;;;;;;5050171;28;20500;-73
2022/03/06 01:40:08;;;;;;;1999.90;999.90;;;2.70;99.90;;;;;;5049671;28;20278;-73
2022/03/06 01:42:34;;;;;;;1999.90;999.90;;;2.60;99.90;;;;;;5049428;28;20552;-75
2022/03/06 01:45:00;;;;;;;1999.90;999.90;;;2.60;99.90;;;;;;5048467;28;20262;-74
2022/03/06 01:47:42;;;;;;;1999.90;999.90;;;2.60;99.90;;;;;;5049460;28;20453;-73
2022/03/06 01:50:15;;;;;;;1999.90;999.90;;;2.60;99.90;;;;;;5049421;28;20593;-74
2022/03/06 01:52:42;;;;;;;1999.90;999.90;;;2.60;99.90;;;;;;5049299;28;20191;-73
2022/03/06 01:55:09;;;;;;;1999.90;999.90;;;2.50;99.90;;;;;;5048167;28;20203;-76
2022/03/06 01:57:34;;;;;;;1999.90;999.90;;;2.50;99.90;;;;;;5049927;28;20492;-76
2022/03/06 02:00:01;;;;;;;1999.90;999.90;;;2.50;99.90;;;;;;5048739;28;20279;-75
2022/03/06 02:02:27;;;;;;;1999.90;999.90;;;2.40;99.90;;;;;;5049211;28;20275;-77
2022/03/06 02:04:52;;;;;;;1999.90;999.90;;;2.40;99.90;;;;;;5048221;28;20501;-76
2022/03/06 02:07:18;;;;;;;1999.90;999.90;;;2.40;99.90;;;;;;5049038;28;20187;-77
2022/03/06 02:09:44;;;;;;;1999.90;999.90;;;2.30;99.90;;;;;;5049349;28;20179;-77
2022/03/06 02:12:22;;;;;;;1999.90;999.90;;;2.40;99.90;;;;;;5049151;28;20840;-76
2022/03/06 02:14:49;;;;;;;1999.90;999.90;;;2.30;99.90;;;;;;5048165;28;20198;-76
2022/03/06 02:17:15;;;;;;;1999.90;999.90;;;2.30;99.90;;;;;;5048829;28;20225;-76
2022/03/06 02:20:01;;;;;;;1999.90;999.90;;;2.20;99.90;;;;;;5049526;28;20718;-76
2022/03/06 02:22:30;;;;;;;1999.90;999.90;;;2.10;99.90;;;;;;5049135;28;20190;-77
2022/03/06 02:24:57;;;;;;;1999.90;999.90;;;2.10;99.90;;;;;;5048446;28;20184;-74
2022/03/06 02:27:23;;;;;;;1999.90;999.90;;;2.10;99.90;;;;;;5048948;28;20202;-74
2022/03/06 02:29:48;;;;;;;1999.90;999.90;;;2.10;99.90;;;;;;5048712;28;20257;-74
2022/03/06 02:32:17;;;;;;;1999.90;999.90;;;2.10;99.90;;;;;;5049358;28;20885;-74
2022/03/06 02:34:45;;;;;;;1999.90;999.90;;;2.10;99.90;;;;;;5047947;28;20454;-75
2022/03/06 02:37:12;;;;;;;1999.90;999.90;;;2.10;99.90;;;;;;5048306;28;20190;-74
2022/03/06 02:39:37;;;;;;;1999.90;999.90;;;2.00;99.90;;;;;;5049129;28;20168;-73
2022/03/06 02:42:04;;;;;;;1999.90;999.90;;;2.00;99.90;;;;;;5048304;28;20210;-73
2022/03/06 02:44:30;;;;;;;1999.90;999.90;;;2.00;99.90;;;;;;5047398;28;20257;-73
2022/03/06 02:46:56;;;;;;;1999.90;999.90;;;1.90;99.90;;;;;;5048741;28;20264;-74
2022/03/06 02:49:22;;;;;;;1999.90;999.90;;;1.90;99.90;;;;;;5048495;28;20211;-73
2022/03/06 02:51:48;;;;;;;1999.90;999.90;;;1.90;99.90;;;;;;5048167;28;20449;-74
2022/03/06 02:54:20;;;;;;;1999.90;999.90;;;1.90;99.90;;;;;;5048187;28;20230;-75
2022/03/06 02:56:46;;;;;;;1999.90;999.90;;;1.80;99.90;;;;;;5048429;28;20287;-73
2022/03/06 02:59:12;;;;;;;1999.90;999.90;;;1.80;99.90;;;;;;5048159;28;20164;-73
2022/03/06 03:01:41;;;;;;;1999.90;999.90;;;1.80;99.90;;;;;;5048671;28;20595;-76
2022/03/06 03:04:07;;;;;;;1999.90;999.90;;;1.70;99.90;;;;;;5047834;28;20179;-74
2022/03/06 03:06:33;;;;;;;1999.90;999.90;;;1.70;99.90;;;;;;5047794;28;20172;-73
2022/03/06 03:08:59;;;;;;;1999.90;999.90;;;1.60;99.90;;;;;;5048707;28;20262;-75
2022/03/06 03:11:25;;;;;;;1999.90;999.90;;;1.50;99.90;;;;;;5049188;28;20194;-73
2022/03/06 03:13:51;;;;;;;1999.90;999.90;;;1.50;99.90;;;;;;5052292;28;20163;-73
2022/03/06 03:16:16;;;;;;;1999.90;999.90;;;1.50;99.90;;;;;;5051765;28;20659;-74
2022/03/06 03:18:42;;;;;;;1999.90;999.90;;;1.30;99.90;;;;;;5051983;28;20172;-75
2022/03/06 03:21:07;;;;;;;1999.90;999.90;;;1.10;99.90;;;;;;5052026;28;20185;-76
2022/03/06 03:23:33;;;;;;;1999.90;999.90;;;1.00;99.90;;;;;;5052794;28;20684;-75
2022/03/06 03:25:59;;;;;;;1999.90;999.90;;;1.00;99.90;;;;;;5051111;28;20187;-75
2022/03/06 03:28:24;;;;;;;1999.90;999.90;;;1.00;99.90;;;;;;5051815;28;20203;-75
2022/03/06 03:30:50;;;;;;;1999.90;999.90;;;1.00;99.90;;;;;;5067854;28;20371;-76
2022/03/06 03:33:15;;;;;;;1999.90;999.90;;;0.90;99.90;;;;;;5052230;28;20160;-75
2022/03/06 03:35:41;;;;;;;1999.90;999.90;;;1.00;99.90;;;;;;5051281;28;20199;-74
2022/03/06 03:38:06;;;;;;;1999.90;999.90;;;1.00;99.90;;;;;;5051680;28;20168;-75
2022/03/06 03:40:32;;;;;;;1999.90;999.90;;;0.90;99.90;;;;;;5051681;28;20650;-75
2022/03/06 03:42:59;;;;;;;1999.90;999.90;;;1.00;99.90;;;;;;5052109;28;20213;-76
2022/03/06 03:45:24;;;;;;;1999.90;999.90;;;0.90;99.90;;;;;;5050997;28;20172;-75
2022/03/06 03:47:50;;;;;;;1999.90;999.90;;;1.00;99.90;;;;;;5051123;28;20237;-76
2022/03/06 03:50:16;;;;;;;1999.90;999.90;;;1.00;99.90;;;;;;5052187;28;20176;-76
2022/03/06 03:52:41;;;;;;;1999.90;999.90;;;1.00;99.90;;;;;;5051523;28;20305;-76
2022/03/06 03:55:07;;;;;;;1999.90;999.90;;;0.90;99.90;;;;;;5050571;28;20282;-75
2022/03/06 03:57:33;;;;;;;1999.90;999.90;;;0.90;99.90;;;;;;5051964;28;20180;-75
2022/03/06 03:59:58;;;;;;;1999.90;999.90;;;0.90;99.90;;;;;;5050862;28;20172;-76
2022/03/06 04:02:24;;;;;;;1999.90;999.90;;;0.90;99.90;;;;;;5049784;28;20183;-75
2022/03/06 04:04:50;;;;;;;1999.90;999.90;;;0.90;99.90;;;;;;5049507;28;20183;-76
2022/03/06 04:07:16;;;;;;;1999.90;999.90;;;0.90;99.90;;;;;;5051249;28;20171;-76
2022/03/06 04:09:42;;;;;;;1999.90;999.90;;;0.80;99.90;;;;;;5051210;28;20418;-75
2022/03/06 04:12:08;;;;;;;1999.90;999.90;;;0.90;99.90;;;;;;5051484;28;20213;-76
2022/03/06 04:14:34;;;;;;;1999.90;999.90;;;0.90;99.90;;;;;;5050194;28;20195;-76
2022/03/06 04:17:00;;;;;;;1999.90;999.90;;;0.90;99.90;;;;;;5051194;28;20522;-75
2022/03/06 04:19:26;;;;;;;1999.90;999.90;;;0.80;99.90;;;;;;5049639;28;20418;-75
2022/03/06 04:21:52;;;;;;;1999.90;999.90;;;0.70;99.90;;;;;;5050560;28;20491;-76
2022/03/06 04:24:17;;;;;;;1999.90;999.90;;;0.70;99.90;;;;;;5050423;28;20421;-74
2022/03/06 04:26:43;;;;;;;1999.90;999.90;;;0.70;99.90;;;;;;5051029;28;20931;-76
2022/03/06 04:29:08;;;;;;;1999.90;999.90;;;0.70;99.90;;;;;;5050481;28;20271;-75
2022/03/06 04:31:34;;;;;;;1999.90;999.90;;;0.80;99.90;;;;;;5051290;28;20208;-76
2022/03/06 04:34:00;;;;;;;1999.90;999.90;;;0.80;99.90;;;;;;5050248;28;20565;-76
2022/03/06 04:36:26;;;;;;;1999.90;999.90;;;0.80;99.90;;;;;;5049416;28;20546;-75
2022/03/06 04:38:51;;;;;;;1999.90;999.90;;;0.80;99.90;;;;;;5051020;28;20168;-76
2022/03/06 04:41:17;;;;;;;1999.90;999.90;;;0.90;99.90;;;;;;5050363;28;20476;-76
2022/03/06 04:43:43;;;;;;;1999.90;999.90;;;1.00;99.90;;;;;;5050859;28;20198;-75
2022/03/06 04:46:09;;;;;;;1999.90;999.90;;;1.10;99.90;;;;;;5049953;28;20471;-76
2022/03/06 04:48:35;;;;;;;1999.90;999.90;;;1.10;99.90;;;;;;5050599;28;20978;-76
2022/03/06 04:51:00;;;;;;;1999.90;999.90;;;1.20;99.90;;;;;;5050432;28;20259;-76
2022/03/06 04:53:26;;;;;;;1999.90;999.90;;;1.20;99.90;;;;;;5050507;28;20187;-75
2022/03/06 04:55:52;;;;;;;1999.90;999.90;;;1.10;99.90;;;;;;5049460;28;20199;-75
2022/03/06 04:58:17;;;;;;;1999.90;999.90;;;1.20;99.90;;;;;;5050888;28;20167;-75
2022/03/06 05:00:43;;;;;;;1999.90;999.90;;;1.20;99.90;;;;;;5049949;28;20259;-76
2022/03/06 05:03:08;;;;;;;1999.90;999.90;;;1.10;99.90;;;;;;5050196;28;20656;-74
2022/03/06 05:05:34;;;;;;;1999.90;999.90;;;1.10;99.90;;;;;;5050764;28;20260;-75
2022/03/06 05:08:00;;;;;;;1999.90;999.90;;;1.00;99.90;;;;;;5066280;28;20186;-76
2022/03/06 05:10:25;;;;;;;1999.90;999.90;;;1.00;99.90;;;;;;5049968;28;20183;-75
2022/03/06 05:12:51;;;;;;;1999.90;999.90;;;0.80;99.90;;;;;;5049952;28;20763;-76
2022/03/06 05:15:17;;;;;;;1999.90;999.90;;;0.80;99.90;;;;;;5048983;28;20274;-75
2022/03/06 05:17:43;;;;;;;1999.90;999.90;;;0.80;99.90;;;;;;5049237;28;20179;-76
2022/03/06 05:20:10;;;;;;;1999.90;999.90;;;0.80;99.90;;;;;;5049882;28;20275;-78
2022/03/06 05:22:36;;;;;;;1999.90;999.90;;;0.90;99.90;;;;;;5048927;28;20633;-76
2022/03/06 05:25:03;;;;;;;1999.90;999.90;;;0.90;99.90;;;;;;5049512;28;20195;-76
2022/03/06 05:27:29;;;;;;;1999.90;999.90;;;0.90;99.90;;;;;;5049862;28;20179;-76
2022/03/06 05:29:54;;;;;;;1999.90;999.90;;;0.90;99.90;;;;;;5049639;28;20187;-76
2022/03/06 05:32:20;;;;;;;1999.90;999.90;;;1.00;99.90;;;;;;5049743;28;20195;-75
2022/03/06 05:34:45;;;;;;;1999.90;999.90;;;0.90;99.90;;;;;;5048000;28;20237;-76
2022/03/06 05:37:11;;;;;;;1999.90;999.90;;;0.80;99.90;;;;;;5049419;28;20179;-75
2022/03/06 05:39:37;;;;;;;1999.90;999.90;;;0.80;99.90;;;;;;5049972;28;20598;-76
2022/03/06 05:42:03;;;;;;;1999.90;999.90;;;0.90;99.90;;;;;;5048965;28;20234;-76
2022/03/06 05:44:29;;;;;;;1999.90;999.90;;;0.90;99.90;;;;;;5048669;28;20183;-75
2022/03/06 05:46:54;;;;;;;1999.90;999.90;;;0.80;99.90;;;;;;5049880;28;20187;-76
2022/03/06 05:49:20;;;;;;;1999.90;999.90;;;0.90;99.90;;;;;;5049376;28;20172;-76
2022/03/06 05:51:46;;;;;;;1999.90;999.90;;;0.90;99.90;;;;;;5049150;28;20192;-73
2022/03/06 05:54:11;;;;;;;1999.90;999.90;;;0.90;99.90;;;;;;5047237;28;20196;-75
2022/03/06 05:56:39;;;;;;;1999.90;999.90;;;0.90;99.90;;;;;;5049148;28;20411;-76
2022/03/06 05:59:05;;;;;;;1999.90;999.90;;;1.00;99.90;;;;;;5049758;28;20180;-74
2022/03/06 06:01:31;;;;;;;1999.90;999.90;;;1.10;99.90;;;;;;5049160;28;20191;-76
2022/03/06 06:03:58;;;;;;;1999.90;999.90;;;1.10;99.90;;;;;;5049111;28;20547;-76
2022/03/06 06:06:25;;;;;;;1999.90;999.90;;;1.10;99.90;;;;;;5048977;28;20172;-75
2022/03/06 06:08:51;;;;;;;1999.90;999.90;;;1.20;99.90;;;;;;5049313;28;20175;-74
2022/03/06 06:11:17;;;;;;;1999.90;999.90;;;1.20;99.90;;;;;;5047405;28;20195;-74
2022/03/06 06:13:43;;;;;;;1999.90;999.90;;;1.30;99.90;;;;;;5049023;28;20197;-74
2022/03/06 06:16:08;;;;;;;1999.90;999.90;;;1.30;99.90;;;;;;5048180;28;20708;-74
2022/03/06 06:18:34;;;;;;;1999.90;999.90;;;1.30;99.90;;;;;;5048836;28;20171;-76
2022/03/06 06:21:00;;;;;;;1999.90;999.90;;;1.30;99.90;;;;;;5049365;28;20845;-74
2022/03/06 06:23:26;;;;;;;1999.90;999.90;;;1.30;99.90;;;;;;5048528;28;20172;-73
2022/03/06 06:25:51;;;;;;;1999.90;999.90;;;1.10;99.90;;;;;;5048001;28;20178;-76
2022/03/06 06:28:17;;;;;;;1999.90;999.90;;;1.10;99.90;;;;;;5049129;28;20426;-75
2022/03/06 06:30:42;;;;;;;1999.90;999.90;;;1.10;99.90;;;;;;5048701;28;20179;-74
2022/03/06 06:33:09;;;;;;;1999.90;999.90;;;1.10;99.90;;;;;;5048514;28;20574;-76
2022/03/06 06:35:34;;;;;;;1999.90;999.90;;;1.10;99.90;;;;;;5048238;28;20199;-76
2022/03/06 06:38:04;;;;;;;1999.90;999.90;;;1.10;99.90;;;;;;5048612;28;20175;-76
2022/03/06 06:40:30;;;;;;;1999.90;999.90;;;1.10;99.90;;;;;;5047389;28;20267;-76
2022/03/06 06:42:55;;;;;;;1999.90;999.90;;;1.10;99.90;;;;;;5048538;28;20303;-76
2022/03/06 06:45:21;;;;;;;1999.90;999.90;;;1.10;99.90;;;;;;5047435;28;21168;-76
2022/03/06 06:47:47;;;;;;;1999.90;999.90;;;1.10;99.90;;;;;;5048781;28;20190;-75
2022/03/06 06:50:13;;;;;;;1999.90;999.90;;;1.10;99.90;;;;;;5048811;28;20175;-75
2022/03/06 06:52:39;;;;;;;1999.90;999.90;;;1.20;99.90;;;;;;5048185;28;20430;-75
2022/03/06 06:55:06;;;;;;;1999.90;999.90;;;1.10;99.90;;;;;;5047713;28;20456;-75
2022/03/06 06:57:32;;;;;;;1999.90;999.90;;;1.10;99.90;;;;;;5047216;28;20183;-76
2022/03/06 06:59:58;;;;;;;1999.90;999.90;;;1.10;99.90;;;;;;5048378;28;20182;-76
2022/03/06 07:02:24;;;;;;;1999.90;999.90;;;1.10;99.90;;;;;;5048711;28;20187;-75
2022/03/06 07:04:49;;;;;;;1999.90;999.90;;;1.10;99.90;;;;;;5047155;28;20447;-74
2022/03/06 07:07:15;;;;;;;1999.90;999.90;;;1.20;99.90;;;;;;5048149;28;20183;-75
2022/03/06 07:09:41;;;;;;;1999.90;999.90;;;1.20;99.90;;;;;;5048856;28;20175;-76
2022/03/06 07:12:07;;;;;;;1999.90;999.90;;;1.20;99.90;;;;;;5067786;22;20175;-75
2022/03/06 07:14:33;;;;;;;1999.90;999.90;;;1.30;99.90;;;;;;5086975;28;20587;-76
2022/03/06 07:16:58;;;;;;;1999.90;999.90;;;1.40;99.90;;;;;;5088795;28;20166;-76
2022/03/06 07:19:24;;;;;;;1999.90;999.90;;;1.40;99.90;;;;;;5088328;28;20174;-76
2022/03/06 07:21:50;;;;;;;1999.90;999.90;;;1.50;99.90;;;;;;5100592;28;20521;-76
2022/03/06 07:24:16;;;;;;;1999.90;999.90;;;1.50;99.90;;;;;;5107651;28;20170;-76
2022/03/06 07:26:41;;;;;;;1999.90;999.90;;;1.60;99.90;;;;;;5108599;28;20177;-76
2022/03/06 07:29:07;;;;;;;1999.90;999.90;;;1.60;99.90;;;;;;5109005;28;20251;-76
2022/03/06 07:31:33;;;;;;;1999.90;999.90;;;1.70;99.90;;;;;;5108678;28;20182;-76
2022/03/06 07:33:59;;;;;;;1999.90;999.90;;;1.70;99.90;;;;;;5107869;28;20568;-76
2022/03/06 07:36:25;;;;;;;1999.90;999.90;;;1.70;99.90;;;;;;5108587;28;20305;-76
2022/03/06 07:38:50;;;;;;;1999.90;999.90;;;1.80;99.90;;;;;;5108413;28;20182;-76
2022/03/06 07:41:17;;;;;;;1999.90;999.90;;;1.80;99.90;;;;;;5108424;28;20259;-76
2022/03/06 07:43:43;;;;;;;1999.90;999.90;;;1.90;99.90;;;;;;5108783;28;20235;-76
2022/03/06 07:46:08;;;;;;;1999.90;999.90;;;1.90;99.90;;;;;;5107281;28;20654;-76
2022/03/06 07:48:34;;;;;;;1999.90;999.90;;;1.90;99.90;;;;;;5108397;28;20962;-76
2022/03/06 07:51:00;;;;;;;1999.90;999.90;;;1.90;99.90;;;;;;5107553;28;20260;-76
2022/03/06 07:53:25;;;;;;;1999.90;999.90;;;2.00;99.90;;;;;;5108106;28;20185;-76
2022/03/06 07:55:51;;;;;;;1999.90;999.90;;;2.00;99.90;;;;;;5107322;28;20609;-76
2022/03/06 07:58:16;;;;;;;1999.90;999.90;;;2.10;99.90;;;;;;5110794;28;20757;-76
2022/03/06 08:00:42;;;;;;;1999.90;999.90;;;2.20;99.90;;;;;;5110606;28;20173;-76
2022/03/06 08:03:08;;;;;;;1999.90;999.90;;;2.30;99.90;;;;;;5111150;28;20253;-76
2022/03/06 08:05:33;;;;;;;1999.90;999.90;;;2.40;99.90;;;;;;5110739;28;20637;-76
2022/03/06 08:07:59;;;;;;;1999.90;999.90;;;2.50;99.90;;;;;;5111821;28;20180;-76
2022/03/06 08:10:24;;;;;;;1999.90;999.90;;;2.60;99.90;;;;;;5111202;28;20223;-76
2022/03/06 08:12:50;;;;;;;1999.90;999.90;;;2.70;99.90;;;;;;5111543;28;20254;-76
2022/03/06 08:15:16;;;;;;;1999.90;999.90;;;2.80;99.90;;;;;;5110817;28;20198;-76
2022/03/06 08:17:42;;;;;;;1999.90;999.90;;;2.80;99.90;;;;;;5111953;28;21019;-76
2022/03/06 08:20:09;;;;;;;1999.90;999.90;;;2.80;99.90;;;;;;5111697;28;20260;-76
2022/03/06 08:22:35;;;;;;;1999.90;999.90;;;3.00;99.90;;;;;;5111627;28;20189;-76
2022/03/06 08:25:01;;;;;;;1999.90;999.90;;;3.00;99.90;;;;;;5111257;28;20188;-76
2022/03/06 08:27:27;;;;;;;1999.90;999.90;;;3.00;99.90;;;;;;5111117;28;20200;-76
2022/03/06 08:29:52;;;;;;;1999.90;999.90;;;3.10;99.90;;;;;;5111623;28;20419;-76
2022/03/06 08:32:18;;;;;;;1999.90;999.90;;;3.20;99.90;;;;;;5111841;28;20201;-76
2022/03/06 08:34:44;;;;;;;1999.90;999.90;;;3.20;99.90;;;;;;5110382;28;20220;-76
2022/03/06 08:37:10;;;;;;;1999.90;999.90;;;3.20;99.90;;;;;;5111299;28;20184;-76
2022/03/06 08:39:36;;;;;;;1999.90;999.90;;;3.20;99.90;;;;;;5111420;28;20853;-76
2022/03/06 08:42:02;;;;;;;1999.90;999.90;;;3.30;99.90;;;;;;5111135;28;20204;-76
2022/03/06 08:44:28;;;;;;;1999.90;999.90;;;3.50;99.90;;;;;;5110901;28;20174;-76
2022/03/06 08:46:53;;;;;;;1999.90;999.90;;;3.50;99.90;;;;;;5110751;28;20430;-76
2022/03/06 08:49:19;;;;;;;1999.90;999.90;;;3.60;99.90;;;;;;5111138;28;20180;-77
2022/03/06 08:51:45;;;;;;;1999.90;999.90;;;3.60;99.90;;;;;;5111486;28;20276;-77
2022/03/06 08:54:10;;;;;;;1999.90;999.90;;;3.70;99.90;;;;;;5110065;28;20202;-77
2022/03/06 08:56:36;;;;;;;1999.90;999.90;;;3.90;99.90;;;;;;5110716;28;20229;-77
2022/03/06 08:59:02;;;;;;;1999.90;999.90;;;4.00;99.90;;;;;;5111428;28;20557;-77
2022/03/06 09:01:27;;;;;;;1999.90;999.90;;;4.00;99.90;;;;;;5110887;28;20181;-77
2022/03/06 09:03:53;;;;;;;1999.90;999.90;;;4.10;99.90;;;;;;5111180;28;20185;-77
2022/03/06 09:06:19;;;;;;;1999.90;999.90;;;4.30;99.90;;;;;;5110061;28;20222;-77
2022/03/06 09:08:45;;;;;;;1999.90;999.90;;;4.40;99.90;;;;;;5109339;28;20178;-77
2022/03/06 09:11:11;;;;;;;1999.90;999.90;;;4.30;99.90;;;;;;5110844;28;20176;-77
2022/03/06 09:13:36;;;;;;;1999.90;999.90;;;4.30;99.90;;;;;;5110338;28;20446;-77
2022/03/06 09:16:03;;;;;;;1999.90;999.90;;;4.30;99.90;;;;;;5109284;28;20447;-77
2022/03/06 09:18:29;;;;;;;1999.90;999.90;;;4.30;99.90;;;;;;5110714;28;20639;-77
2022/03/06 09:20:55;;;;;;;1999.90;999.90;;;4.30;99.90;;;;;;5110541;28;20418;-77
2022/03/06 09:23:20;;;;;;;1999.90;999.90;;;4.30;99.90;;;;;;5110413;28;20419;-77
2022/03/06 09:25:46;;;;;;;1999.90;999.90;;;4.40;99.90;;;;;;5108666;28;20193;-77
2022/03/06 09:28:12;;;;;;;1999.90;999.90;;;4.30;99.90;;;;;;5109888;28;21008;-77
2022/03/06 09:30:38;;;;;;;1999.90;999.90;;;4.20;99.90;;;;;;5110597;28;20184;-77
2022/03/06 09:33:04;;;;;;;1999.90;999.90;;;4.30;99.90;;;;;;5110668;28;20192;-77
2022/03/06 09:35:31;;;;;;;1999.90;999.90;;;4.30;99.90;;;;;;5109175;28;20455;-77
2022/03/06 09:37:57;;;;;;;1999.90;999.90;;;4.30;99.90;;;;;;5110137;28;20197;-77
2022/03/06 09:40:22;;;;;;;1999.90;999.90;;;4.30;99.90;;;;;;5110674;28;20679;-77
2022/03/06 09:42:48;;;;;;;1999.90;999.90;;;4.50;99.90;;;;;;5109941;28;20783;-77
2022/03/06 09:45:15;;;;;;;1999.90;999.90;;;4.80;99.90;;;;;;5109553;28;20486;-77
2022/03/06 09:47:44;;;;;;;1999.90;999.90;;;4.90;99.90;;;;;;5110276;28;20411;-77
2022/03/06 09:50:12;;;;;;;1999.90;999.90;;;5.20;99.90;;;;;;5109454;28;20407;-77
2022/03/06 09:52:37;;;;;;;1999.90;999.90;;;5.60;99.90;;;;;;5109721;28;20462;-77
2022/03/06 09:55:04;;;;;;;1999.90;999.90;;;5.80;99.90;;;;;;5109498;28;21062;-76
2022/03/06 09:57:30;;;;;;;1999.90;999.90;;;6.10;99.90;;;;;;5109749;28;20767;-75
2022/03/06 09:59:55;;;;;;;1999.90;999.90;;;6.40;99.90;;;;;;5109622;28;20408;-75
2022/03/06 10:02:21;;;;;;;1999.90;999.90;;;6.80;99.90;;;;;;5108804;28;20437;-76
2022/03/06 10:04:47;;;;;;;1999.90;999.90;;;7.10;99.90;;;;;;5104524;28;20257;-76
2022/03/06 10:07:15;;;;;;;1999.90;999.90;;;7.10;99.90;;;;;;5109568;28;20419;-76
2022/03/06 10:09:48;;;;;;;1999.90;999.90;;;7.10;99.90;;;;;;5109081;28;20263;-76
2022/03/06 10:12:31;;;;;;;1999.90;999.90;;;7.00;99.90;;;;;;5108604;28;20482;-76
2022/03/06 10:14:59;;;;;;;1999.90;999.90;;;7.00;99.90;;;;;;5108707;28;20451;-76
2022/03/06 10:17:27;;;;;;;1999.90;999.90;;;6.90;99.90;;;;;;5109164;28;20407;-76
2022/03/06 10:20:10;;;;;;;1999.90;999.90;;;6.80;99.90;;;;;;5107911;28;20404;-76
2022/03/06 10:22:39;;;;;;;1999.90;999.90;;;6.90;99.90;;;;;;5108897;28;20428;-75
2022/03/06 10:25:06;;;;;;;1999.90;999.90;;;6.70;99.90;;;;;;5107847;28;20483;-76
2022/03/06 10:27:54;;;;;;;1999.90;999.90;;;6.70;99.90;;;;;;5108922;28;20435;-76
2022/03/06 10:30:33;;;;;;;1999.90;999.90;;;6.90;99.90;;;;;;5108285;28;20499;-76
2022/03/06 10:33:10;;;;;;;1999.90;999.90;;;6.80;99.90;;;;;;5108548;28;20439;-75
2022/03/06 10:35:43;;;;;;;1999.90;999.90;;;7.20;99.90;;;;;;5107847;28;20948;-76
2022/03/06 10:38:27;;;;;;;1999.90;999.90;;;7.50;99.90;;;;;;5108840;28;20412;-75
2022/03/06 10:40:54;;;;;;;1999.90;999.90;;;7.50;99.90;;;;;;5107860;28;20419;-75
2022/03/06 10:43:27;;;;;;;1999.90;999.90;;;7.30;99.90;;;;;;5109039;28;20494;-75
2022/03/06 10:46:09;;;;;;;1999.90;999.90;;;7.40;99.90;;;;;;5108172;28;20458;-75
2022/03/06 10:48:35;;;;;;;1999.90;999.90;;;7.20;99.90;;;;;;5108355;28;20776;-75
2022/03/06 10:51:04;;;;;;;1999.90;999.90;;;7.10;99.90;;;;;;5108730;28;20422;-75
2022/03/06 10:53:29;;;;;;;1999.90;999.90;;;6.80;99.90;;;;;;5108253;28;20439;-75
2022/03/06 10:56:04;;;;;;;1999.90;999.90;;;6.90;99.90;;;;;;5107291;28;20827;-75
2022/03/06 10:58:31;;;;;;;1999.90;999.90;;;6.80;99.90;;;;;;5108791;28;20260;-75
2022/03/06 11:00:57;;;;;;;1999.90;999.90;;;6.80;99.90;;;;;;5108521;28;20404;-75
2022/03/06 11:03:24;;;;;;;1999.90;999.90;;;6.70;99.90;;;;;;5108038;28;20467;-75
2022/03/06 11:05:50;;;;;;;1999.90;999.90;;;6.80;99.90;;;;;;5107771;28;20173;-75
2022/03/06 11:08:18;;;;;;;1999.90;999.90;;;6.80;99.90;;;;;;5108459;28;20465;-75
2022/03/06 11:10:44;;;;;;;1999.90;999.90;;;7.10;99.90;;;;;;5107876;28;20411;-75
2022/03/06 11:13:12;;;;;;;1999.90;999.90;;;7.40;99.90;;;;;;5108390;28;20447;-75
2022/03/06 11:15:38;;;;;;;1999.90;999.90;;;7.50;99.90;;;;;;5107546;28;20982;-75
2022/03/06 11:18:06;;;;;;;1999.90;999.90;;;7.60;99.90;;;;;;5107640;28;20411;-75
2022/03/06 11:20:32;;;;;;;1999.90;999.90;;;7.50;99.90;;;;;;5108893;28;20455;-75
2022/03/06 11:23:34;;;;;;;1999.90;999.90;;;7.40;99.90;;;;;;5108296;28;21044;-75
2022/03/06 11:26:15;;;;;;;1999.90;999.90;;;7.60;99.90;;;;;;5060857;28;20455;-75
2022/03/06 11:29:01;;;;;;;1999.90;999.90;;;7.70;99.90;;;;;;5108330;28;20408;-75
2022/03/06 11:31:46;;;;;;;1999.90;999.90;;;7.80;99.90;;;;;;5108680;28;20926;-75
2022/03/06 11:34:21;;;;;;;1999.90;999.90;;;8.20;99.90;;;;;;5110660;28;20857;-75
2022/03/06 11:36:48;;;;;;;1999.90;999.90;;;8.60;99.90;;;;;;5112533;28;20899;-75
2022/03/06 11:39:35;;;;;;;1999.90;999.90;;;8.50;99.90;;;;;;5112563;28;20420;-75
2022/03/06 11:42:03;;;;;;;1999.90;999.90;;;8.40;99.90;;;;;;5096668;28;20461;-75
2022/03/06 11:44:38;;;;;;;1999.90;999.90;;;8.20;99.90;;;;;;5111576;28;20449;-75
2022/03/06 11:47:17;;;;;;;1999.90;999.90;;;8.00;99.90;;;;;;5112125;28;20408;-75
2022/03/06 11:49:52;;;;;;;1999.90;999.90;;;7.80;99.90;;;;;;5112282;28;20955;-75
2022/03/06 11:52:33;;;;;;;1999.90;999.90;;;7.90;99.90;;;;;;5111949;28;20431;-75
2022/03/06 11:54:59;;;;;;;1999.90;999.90;;;7.90;99.90;;;;;;5110911;28;21028;-75
2022/03/06 11:57:43;;;;;;;1999.90;999.90;;;8.20;99.90;;;;;;5112015;28;20468;-75
2022/03/06 12:00:30;;;;;;;1999.90;999.90;;;8.70;99.90;;;;;;5112337;28;20524;-75
2022/03/06 12:02:57;;;;;;;1999.90;999.90;;;8.80;99.90;;;;;;5111355;28;20425;-75
2022/03/06 12:05:47;;;;;;;1999.90;999.90;;;9.20;98.90;;;;;;5111124;28;20408;-75
2022/03/06 12:08:14;;;;;;;1999.90;999.90;;;9.50;99.80;;;;;;5111611;28;20429;-75